createdAt,value
2019-02-12T00:01:16.335Z,11.50
2019-02-12T00:03:43.970Z,9.43
2019-02-12T00:06:13.281Z,14.03
2019-02-12T00:08:40.673Z,16.67
2019-02-12T00:11:09.105Z,14.07
2019-02-12T00:13:36.627Z,11.87
2019-02-12T00:16:03.998Z,8.83
2019-02-12T00:18:31.553Z,9.60
2019-02-12T00:20:59.017Z,9.07
2019-02-12T00:23:26.504Z,13.73
2019-02-12T00:25:53.989Z,11.43
2019-02-12T00:28:21.484Z,10.13
2019-02-12T00:30:49.031Z,14.93
2019-02-12T00:33:18.556Z,10.17
2019-02-12T00:35:46.038Z,13.13
2019-02-12T00:38:13.689Z,9.87
2019-02-12T00:40:42.461Z,14.37
2019-02-12T00:43:11.554Z,11.17
2019-02-12T00:45:39.348Z,19.20
2019-02-12T00:48:06.831Z,9.73
2019-02-12T00:50:34.342Z,10.73
2019-02-12T00:53:02.059Z,12.30
2019-02-12T00:55:29.585Z,9.07
2019-02-12T00:57:57.205Z,12.03
2019-02-12T01:00:24.960Z,14.70
2019-02-12T01:02:52.459Z,9.00
2019-02-12T01:05:19.956Z,9.67
2019-02-12T01:07:48.507Z,8.63
2019-02-12T01:10:16.017Z,8.77
2019-02-12T01:12:43.523Z,9.63
2019-02-12T01:15:12.152Z,9.00
2019-02-12T01:17:39.684Z,9.63
2019-02-12T01:20:09.311Z,8.63
2019-02-12T01:22:36.840Z,9.30
2019-02-12T01:25:05.291Z,15.40
2019-02-12T01:27:32.624Z,15.40
2019-02-12T01:30:00.232Z,14.90
2019-02-12T01:32:27.808Z,9.27
2019-02-12T01:34:55.316Z,13.30
2019-02-12T01:37:23.171Z,15.63
2019-02-12T01:39:51.232Z,12.07
2019-02-12T01:42:18.739Z,11.20
2019-02-12T01:44:46.434Z,12.17
2019-02-12T01:47:14.208Z,11.27
2019-02-12T01:49:41.689Z,11.47
2019-02-12T01:52:09.051Z,17.33
2019-02-12T01:54:36.682Z,10.43
2019-02-12T01:57:04.185Z,13.57
2019-02-12T01:59:31.560Z,16.23
2019-02-12T02:01:59.024Z,12.77
2019-02-12T02:04:26.388Z,16.90
2019-02-12T02:06:53.880Z,15.07
2019-02-12T02:09:21.339Z,10.67
2019-02-12T02:11:49.083Z,13.57
2019-02-12T02:14:16.559Z,9.97
2019-02-12T02:16:44.543Z,15.43
2019-02-12T02:19:12.383Z,12.43
2019-02-12T02:21:44.167Z,13.60
2019-02-12T02:24:09.641Z,10.80
2019-02-12T02:26:37.291Z,10.90
2019-02-12T02:29:04.891Z,9.43
2019-02-12T02:31:32.459Z,11.27
2019-02-12T02:33:59.963Z,13.97
2019-02-12T02:36:27.429Z,11.63
2019-02-12T02:38:55.034Z,13.50
2019-02-12T02:41:22.519Z,12.17
2019-02-12T02:43:49.952Z,13.00
2019-02-12T02:46:17.521Z,9.63
2019-02-12T02:48:45.013Z,9.83
2019-02-12T02:51:12.621Z,10.83
2019-02-12T02:53:40.106Z,14.13
2019-02-12T02:56:07.588Z,11.47
2019-02-12T02:58:37.060Z,15.23
2019-02-12T03:01:04.635Z,13.63
2019-02-12T03:03:32.221Z,12.30
2019-02-12T03:05:59.983Z,13.60
2019-02-12T03:08:27.496Z,10.97
2019-02-12T03:10:54.988Z,10.37
2019-02-12T03:13:22.520Z,9.20
2019-02-12T03:15:49.988Z,9.30
2019-02-12T03:18:17.448Z,16.57
2019-02-12T03:20:46.904Z,19.47
2019-02-12T03:23:14.344Z,10.10
2019-02-12T03:25:41.848Z,13.93
2019-02-12T03:28:09.708Z,10.97
2019-02-12T03:30:37.087Z,8.17
2019-02-12T03:33:04.789Z,10.17
2019-02-12T03:35:32.487Z,10.57
2019-02-12T03:37:59.947Z,9.87
2019-02-12T03:40:27.460Z,10.40
2019-02-12T03:42:54.980Z,12.17
2019-02-12T03:45:22.775Z,8.73
2019-02-12T03:47:50.296Z,8.60
2019-02-12T03:50:17.764Z,9.30
2019-02-12T03:52:45.239Z,11.37
2019-02-12T03:55:12.790Z,9.43
2019-02-12T03:57:40.666Z,12.40
2019-02-12T04:00:11.110Z,13.90
2019-02-12T04:02:57.900Z,13.67
2019-02-12T04:05:25.528Z,11.13
2019-02-12T04:07:53.018Z,12.07
2019-02-12T04:10:20.512Z,11.30
2019-02-12T04:12:48.020Z,13.20
2019-02-12T04:15:15.539Z,9.77
2019-02-12T04:17:43.034Z,13.93
2019-02-12T04:20:10.623Z,9.70
2019-02-12T04:22:38.063Z,11.43
2019-02-12T04:25:05.689Z,16.20
2019-02-12T04:27:33.262Z,20.23
2019-02-12T04:30:00.759Z,9.47
2019-02-12T04:32:28.254Z,12.27
2019-02-12T04:34:55.698Z,10.80
2019-02-12T04:37:23.165Z,10.27
2019-02-12T04:39:50.683Z,14.67
2019-02-12T04:42:18.031Z,11.87
2019-02-12T04:44:45.936Z,9.80
2019-02-12T04:47:13.458Z,8.53
2019-02-12T04:49:40.949Z,12.00
2019-02-12T04:52:08.508Z,14.10
2019-02-12T04:54:36.356Z,10.47
2019-02-12T04:57:03.896Z,9.80
2019-02-12T04:59:31.620Z,10.23
2019-02-12T05:01:59.194Z,13.13
2019-02-12T05:04:26.900Z,9.53
2019-02-12T05:06:54.415Z,13.17
2019-02-12T05:09:22.144Z,9.77
2019-02-12T05:11:58.049Z,13.73
2019-02-12T05:14:25.533Z,8.10
2019-02-12T05:16:53.305Z,12.70
2019-02-12T05:19:20.785Z,8.73
2019-02-12T05:21:48.305Z,22.40
2019-02-12T05:24:16.075Z,13.83
2019-02-12T05:26:43.623Z,14.17
2019-02-12T05:29:11.145Z,14.70
2019-02-12T05:31:38.604Z,24.30
2019-02-12T05:34:06.088Z,8.70
2019-02-12T05:36:33.619Z,11.63
2019-02-12T05:39:01.217Z,11.80
2019-02-12T05:41:29.975Z,11.03
2019-02-12T05:43:58.368Z,12.37
2019-02-12T05:46:25.875Z,16.33
2019-02-12T05:48:53.356Z,10.27
2019-02-12T05:51:21.166Z,13.50
2019-02-12T05:53:48.702Z,10.77
2019-02-12T05:56:16.050Z,15.27
2019-02-12T05:58:43.540Z,9.67
2019-02-12T06:01:10.979Z,11.57
2019-02-12T06:03:38.489Z,10.40
2019-02-12T06:06:05.951Z,8.87
2019-02-12T06:08:33.276Z,10.27
2019-02-12T06:11:00.623Z,12.37
2019-02-12T06:13:28.135Z,11.57
2019-02-12T06:15:55.511Z,10.97
2019-02-12T06:18:22.981Z,11.57
2019-02-12T06:20:50.473Z,11.77
2019-02-12T06:23:17.948Z,15.73
2019-02-12T06:25:45.464Z,15.23
2019-02-12T06:28:12.945Z,17.20
2019-02-12T06:30:40.563Z,17.93
2019-02-12T06:33:08.218Z,17.80
2019-02-12T06:35:35.536Z,16.10
2019-02-12T06:38:03.055Z,8.57
2019-02-12T06:40:30.403Z,16.20
2019-02-12T06:42:58.030Z,17.20
2019-02-12T06:45:25.484Z,8.80
2019-02-12T06:47:52.930Z,9.13
2019-02-12T06:50:20.476Z,11.23
2019-02-12T06:52:48.056Z,18.57
2019-02-12T06:55:15.489Z,13.73
2019-02-12T06:57:42.872Z,14.37
2019-02-12T07:00:10.403Z,12.03
2019-02-12T07:03:15.841Z,12.03
2019-02-12T07:06:07.811Z,7.70
2019-02-12T07:08:51.933Z,10.63
2019-02-12T07:11:50.924Z,12.00
2019-02-12T07:14:54.692Z,8.20
2019-02-12T07:17:48.959Z,9.03
2019-02-12T07:20:46.131Z,12.20
2019-02-12T07:23:57.889Z,13.07
2019-02-12T07:27:07.044Z,11.07
2019-02-12T07:30:28.608Z,13.90
2019-02-12T07:34:02.518Z,18.60
2019-02-12T07:36:59.539Z,8.17
2019-02-12T07:39:57.403Z,8.93
2019-02-12T07:42:55.358Z,16.13
2019-02-12T07:45:56.319Z,9.90
2019-02-12T07:49:01.571Z,16.13
2019-02-12T07:52:01.275Z,11.30
2019-02-12T07:54:44.333Z,13.47
2019-02-12T07:58:01.834Z,12.67
2019-02-12T08:01:07.798Z,15.40
2019-02-12T08:04:26.146Z,13.23
2019-02-12T08:07:12.021Z,11.20
2019-02-12T08:10:30.322Z,12.37
2019-02-12T08:13:45.578Z,14.37
2019-02-12T08:16:46.184Z,12.53
2019-02-12T08:20:10.753Z,11.73
2019-02-12T08:23:23.780Z,15.67
2019-02-12T08:26:17.905Z,10.50
2019-02-12T08:29:13.572Z,14.40
2019-02-12T08:31:52.547Z,18.70
2019-02-12T08:34:50.596Z,10.00
2019-02-12T08:37:36.529Z,19.37
2019-02-12T08:40:44.657Z,11.03
2019-02-12T08:43:38.405Z,10.83
2019-02-12T08:46:24.771Z,19.13
2019-02-12T08:49:37.036Z,13.60
2019-02-12T08:52:46.512Z,16.10
2019-02-12T08:55:46.152Z,12.03
2019-02-12T08:58:38.177Z,12.70
2019-02-12T09:01:45.812Z,12.60
2019-02-12T09:04:38.319Z,7.97
2019-02-12T09:07:56.887Z,9.30
2019-02-12T09:11:01.873Z,9.10
2019-02-12T09:13:47.077Z,11.77
2019-02-12T09:17:20.576Z,9.93
2019-02-12T09:20:29.932Z,8.23
2019-02-12T09:23:47.375Z,7.60
2019-02-12T09:26:57.512Z,9.47
2019-02-12T09:30:02.428Z,16.53
2019-02-12T09:33:13.826Z,11.83
2019-02-12T09:36:32.430Z,9.33
2019-02-12T09:39:37.481Z,8.33
2019-02-12T09:42:26.791Z,15.13
2019-02-12T09:45:25.806Z,15.90
2019-02-12T09:48:24.528Z,10.87
2019-02-12T09:51:05.650Z,9.53
2019-02-12T09:53:57.506Z,7.77
2019-02-12T09:57:00.793Z,13.73
2019-02-12T10:00:08.209Z,9.43
2019-02-12T10:03:26.832Z,8.93
2019-02-12T10:06:35.197Z,8.63
2019-02-12T10:09:37.415Z,11.40
2019-02-12T10:12:27.563Z,6.17
2019-02-12T10:15:24.646Z,6.33
2019-02-12T10:18:49.639Z,4.80
2019-02-12T10:22:07.163Z,5.63
2019-02-12T10:25:11.788Z,7.30
2019-02-12T10:28:13.533Z,10.73
2019-02-12T10:31:06.554Z,3.60
2019-02-12T10:33:35.281Z,12.00
2019-02-12T10:36:02.965Z,5.37
2019-02-12T10:38:30.388Z,6.67
2019-02-12T10:40:57.959Z,7.27
2019-02-12T10:43:25.476Z,7.23
2019-02-12T10:45:53.093Z,9.57
2019-02-12T10:48:20.529Z,4.83
2019-02-12T10:50:48.078Z,8.33
2019-02-12T10:53:15.561Z,8.83
2019-02-12T10:55:43.178Z,9.47
2019-02-12T10:58:10.650Z,8.47
2019-02-12T11:00:38.266Z,9.43
2019-02-12T11:03:06.258Z,13.77
2019-02-12T11:05:33.764Z,5.40
2019-02-12T11:08:01.223Z,7.50
2019-02-12T11:10:29.938Z,7.30
2019-02-12T11:12:57.420Z,14.50
2019-02-12T11:15:24.926Z,15.27
2019-02-12T11:17:52.380Z,9.20
2019-02-12T11:20:19.853Z,5.40
2019-02-12T11:22:47.567Z,4.53
2019-02-12T11:25:15.535Z,5.37
2019-02-12T11:27:43.041Z,6.87
2019-02-12T11:30:10.483Z,9.17
2019-02-12T11:32:38.012Z,5.67
2019-02-12T11:35:06.023Z,11.93
2019-02-12T11:37:34.579Z,8.50
2019-02-12T11:40:02.046Z,7.40
2019-02-12T11:42:30.195Z,5.00
2019-02-12T11:44:57.703Z,7.23
2019-02-12T11:47:25.160Z,6.67
2019-02-12T11:49:52.790Z,7.83
2019-02-12T11:52:20.589Z,5.13
2019-02-12T11:54:48.192Z,5.80
2019-02-12T11:57:15.969Z,7.83
2019-02-12T11:59:43.526Z,4.40
2019-02-12T12:02:11.009Z,4.33
2019-02-12T12:04:38.564Z,7.37
2019-02-12T12:07:06.164Z,6.07
2019-02-12T12:09:33.658Z,11.13
2019-02-12T12:12:01.193Z,3.90
2019-02-12T12:14:28.691Z,12.60
2019-02-12T12:16:56.097Z,7.87
2019-02-12T12:19:23.582Z,11.47
2019-02-12T12:21:51.401Z,13.90
2019-02-12T12:24:19.029Z,8.03
2019-02-12T12:26:46.877Z,4.33
2019-02-12T12:29:14.371Z,8.27
2019-02-12T12:31:41.883Z,8.23
2019-02-12T12:34:09.690Z,7.43
2019-02-12T12:36:37.146Z,5.60
2019-02-12T12:39:05.368Z,8.53
2019-02-12T12:41:34.792Z,9.33
2019-02-12T12:44:02.672Z,4.70
2019-02-12T12:46:30.879Z,5.57
2019-02-12T12:48:59.292Z,8.60
2019-02-12T12:51:27.872Z,9.23
2019-02-12T12:53:55.329Z,11.90
2019-02-12T12:56:22.787Z,8.80
2019-02-12T12:58:50.347Z,8.00
2019-02-12T13:01:17.788Z,3.73
2019-02-12T13:03:45.239Z,8.37
2019-02-12T13:06:12.796Z,4.93
2019-02-12T13:08:40.299Z,9.80
2019-02-12T13:11:07.789Z,6.77
2019-02-12T13:13:35.282Z,8.97
2019-02-12T13:16:03.082Z,7.07
2019-02-12T13:18:30.831Z,8.30
2019-02-12T13:20:58.515Z,5.27
2019-02-12T13:23:26.025Z,6.30
2019-02-12T13:25:53.468Z,10.80
2019-02-12T13:28:20.940Z,5.77
2019-02-12T13:30:48.540Z,4.77
2019-02-12T13:33:16.032Z,5.53
2019-02-12T13:35:43.521Z,8.53
2019-02-12T13:38:11.055Z,6.80
2019-02-12T13:40:38.901Z,7.13
2019-02-12T13:43:06.595Z,8.40
2019-02-12T13:45:34.087Z,4.73
2019-02-12T13:48:03.457Z,11.20
2019-02-12T13:50:31.591Z,15.03
2019-02-12T13:52:59.481Z,5.97
2019-02-12T13:55:27.026Z,8.87
2019-02-12T13:57:54.605Z,4.17
2019-02-12T14:00:22.366Z,7.33
2019-02-12T14:02:49.883Z,11.10
2019-02-12T14:05:17.642Z,6.40
2019-02-12T14:07:45.259Z,5.83
2019-02-12T14:10:13.309Z,8.93
2019-02-12T14:12:41.955Z,5.07
2019-02-12T14:15:10.582Z,6.17
2019-02-12T14:17:38.539Z,7.90
2019-02-12T14:20:08.264Z,8.57
2019-02-12T14:22:35.919Z,5.93
2019-02-12T14:25:04.297Z,7.83
2019-02-12T14:27:32.936Z,8.30
2019-02-12T14:30:00.454Z,5.47
2019-02-12T14:32:27.941Z,7.23
2019-02-12T14:34:55.419Z,5.00
2019-02-12T14:37:22.971Z,6.47
2019-02-12T14:39:50.520Z,5.90
2019-02-12T14:42:18.298Z,7.37
2019-02-12T14:44:45.830Z,5.53
2019-02-12T14:47:13.320Z,7.20
2019-02-12T14:49:40.760Z,7.57
2019-02-12T14:52:08.276Z,5.87
2019-02-12T14:54:35.748Z,6.57
2019-02-12T14:57:03.127Z,5.43
2019-02-12T14:59:31.357Z,8.17
2019-02-12T15:01:58.890Z,6.33
2019-02-12T15:04:26.359Z,6.70
2019-02-12T15:06:53.876Z,5.13
2019-02-12T15:09:22.474Z,8.37
2019-02-12T15:11:50.314Z,6.70
2019-02-12T15:14:18.256Z,7.43
2019-02-12T15:16:45.723Z,8.37
2019-02-12T15:19:13.281Z,5.63
2019-02-12T15:21:40.875Z,6.93
2019-02-12T15:24:08.491Z,9.40
2019-02-12T15:26:35.987Z,5.67
2019-02-12T15:29:03.494Z,9.03
2019-02-12T15:31:31.122Z,7.77
2019-02-12T15:33:58.604Z,11.23
2019-02-12T15:36:26.098Z,15.00
2019-02-12T15:46:21.107Z,9.13
2019-02-12T15:48:48.507Z,5.97
2019-02-12T15:51:15.962Z,8.97
2019-02-12T15:53:43.896Z,10.53
2019-02-12T15:56:11.353Z,6.27
2019-02-12T15:58:38.943Z,8.87
2019-02-12T16:01:06.494Z,4.80
2019-02-12T16:03:37.724Z,4.80
2019-02-12T16:06:05.742Z,5.03
2019-02-12T16:08:33.159Z,4.70
2019-02-12T16:11:00.670Z,6.30
2019-02-12T16:13:28.277Z,5.67
2019-02-12T16:15:55.770Z,8.53
2019-02-12T16:18:24.817Z,8.57
2019-02-12T16:20:52.943Z,8.83
2019-02-12T16:23:21.766Z,7.27
2019-02-12T16:25:49.518Z,4.70
2019-02-12T16:28:16.988Z,8.87
2019-02-12T16:30:44.469Z,5.87
2019-02-12T16:33:11.975Z,8.03
2019-02-12T16:35:39.816Z,5.37
2019-02-12T16:38:07.222Z,6.50
2019-02-12T16:40:34.647Z,6.77
2019-02-12T16:43:02.019Z,6.63
2019-02-12T16:45:43.130Z,8.90
2019-02-12T16:48:10.606Z,12.03
2019-02-12T16:50:39.171Z,10.10
2019-02-12T16:53:06.751Z,6.67
2019-02-12T16:55:34.265Z,5.67
2019-02-12T16:58:01.785Z,7.93
2019-02-12T17:00:29.328Z,4.47
2019-02-12T17:02:57.039Z,5.77
2019-02-12T17:05:24.649Z,8.23
2019-02-12T17:07:52.228Z,7.50
2019-02-12T17:10:20.149Z,6.90
2019-02-12T17:12:47.607Z,8.83
2019-02-12T17:15:15.266Z,11.67
2019-02-12T17:17:42.990Z,17.50
2019-02-12T17:20:13.257Z,15.83
2019-02-12T17:22:42.533Z,29.30
2019-02-12T17:25:10.118Z,22.43
2019-02-12T17:27:38.541Z,17.97
2019-02-12T17:30:07.901Z,15.47
2019-02-12T17:32:35.516Z,17.93
2019-02-12T17:35:02.994Z,11.23
2019-02-12T17:37:31.690Z,17.77
2019-02-12T17:39:59.143Z,11.83
2019-02-12T17:42:26.809Z,14.80
2019-02-12T17:44:54.281Z,17.00
2019-02-12T17:47:21.773Z,18.30
2019-02-12T17:49:50.312Z,21.93
2019-02-12T17:52:17.769Z,19.17
2019-02-12T17:54:45.407Z,21.13
2019-02-12T17:57:12.849Z,15.13
2019-02-12T17:59:40.340Z,15.73
2019-02-12T18:02:08.326Z,17.63
2019-02-12T18:04:35.775Z,16.97
2019-02-12T18:07:03.291Z,17.90
2019-02-12T18:09:30.739Z,18.87
2019-02-12T18:11:58.216Z,18.53
2019-02-12T18:14:25.664Z,18.83
2019-02-12T18:16:53.081Z,16.10
2019-02-12T18:19:20.454Z,17.60
2019-02-12T18:21:47.805Z,14.20
2019-02-12T18:24:15.392Z,13.83
2019-02-12T18:26:43.614Z,10.03
2019-02-12T18:29:11.124Z,10.30
2019-02-12T18:31:38.826Z,15.40
2019-02-12T18:34:06.350Z,20.03
2019-02-12T18:36:33.799Z,23.63
2019-02-12T18:39:01.305Z,25.97
2019-02-12T18:41:30.642Z,19.50
2019-02-12T18:43:57.985Z,18.00
2019-02-12T18:46:25.473Z,27.20
2019-02-12T18:48:52.967Z,17.03
2019-02-12T18:51:20.520Z,23.07
2019-02-12T18:53:48.112Z,23.90
2019-02-12T18:56:15.578Z,24.57
2019-02-12T18:58:43.280Z,27.03
2019-02-12T19:01:10.730Z,30.30
2019-02-12T19:03:38.408Z,22.30
2019-02-12T19:06:06.134Z,26.77
2019-02-12T19:08:33.719Z,34.77
2019-02-12T19:11:01.446Z,32.50
2019-02-12T19:13:29.128Z,24.40
2019-02-12T19:15:56.674Z,21.80
2019-02-12T19:18:25.698Z,29.27
2019-02-12T19:20:53.133Z,24.50
2019-02-12T19:23:20.684Z,16.83
2019-02-12T19:25:48.136Z,16.40
2019-02-12T19:28:15.568Z,15.00
2019-02-12T19:30:43.031Z,16.93
2019-02-12T19:33:10.477Z,16.67
2019-02-12T19:35:37.961Z,22.70
2019-02-12T19:38:05.371Z,19.17
2019-02-12T19:40:34.155Z,28.10
2019-02-12T19:43:01.757Z,36.90
2019-02-12T19:45:29.905Z,43.60
2019-02-12T19:47:57.378Z,36.80
2019-02-12T19:50:24.834Z,36.27
2019-02-12T19:52:52.381Z,33.63
2019-02-12T19:55:20.279Z,38.63
2019-02-12T19:57:47.795Z,33.73
2019-02-12T20:00:18.665Z,30.10
2019-02-12T20:02:46.154Z,23.07
2019-02-12T20:05:13.622Z,22.87
2019-02-12T20:07:41.154Z,18.73
2019-02-12T20:10:08.651Z,25.00
2019-02-12T20:12:36.176Z,17.63
2019-02-12T20:15:04.575Z,20.67
2019-02-12T20:17:32.192Z,31.23
2019-02-12T20:19:59.806Z,26.63
2019-02-12T20:22:27.211Z,32.43
2019-02-12T20:24:54.897Z,42.37
2019-02-12T20:27:22.396Z,35.37
2019-02-12T20:29:50.014Z,36.93
2019-02-12T20:32:17.492Z,36.10
2019-02-12T20:34:45.004Z,35.53
2019-02-12T20:37:12.710Z,43.77
2019-02-12T20:39:40.338Z,42.90
2019-02-12T20:42:07.843Z,36.67
2019-02-12T20:44:35.345Z,35.03
2019-02-12T20:47:04.004Z,26.83
2019-02-12T20:49:31.628Z,36.13
2019-02-12T20:51:59.154Z,24.33
2019-02-12T20:54:26.663Z,21.27
2019-02-12T20:56:54.559Z,19.50
2019-02-12T20:59:22.386Z,16.30
2019-02-12T21:01:49.917Z,18.07
2019-02-12T21:04:17.407Z,15.97
2019-02-12T21:06:45.039Z,17.03
2019-02-12T21:09:12.794Z,18.03
2019-02-12T21:11:40.589Z,21.07
2019-02-12T21:14:08.056Z,27.27
2019-02-12T21:16:35.515Z,29.67
2019-02-12T21:19:02.995Z,31.90
2019-02-12T21:21:30.455Z,25.50
2019-02-12T21:23:58.050Z,32.50
2019-02-12T21:26:25.544Z,26.73
2019-02-12T21:28:53.002Z,27.30
2019-02-12T21:31:20.337Z,29.03
2019-02-12T21:33:47.834Z,23.53
2019-02-12T21:36:15.395Z,22.60
2019-02-12T21:38:43.325Z,23.50
2019-02-12T21:41:11.908Z,37.07
2019-02-12T21:43:39.348Z,24.23
2019-02-12T21:46:06.843Z,21.00
2019-02-12T21:48:34.482Z,22.47
2019-02-12T21:51:01.987Z,21.70
2019-02-12T21:53:30.111Z,24.93
2019-02-12T21:55:57.819Z,18.60
2019-02-12T21:58:25.652Z,17.77
2019-02-12T22:00:53.172Z,20.20
2019-02-12T22:03:21.401Z,20.30
2019-02-12T22:05:48.978Z,15.13
2019-02-12T22:08:16.436Z,15.03
2019-02-12T22:10:46.336Z,16.47
2019-02-12T22:13:13.201Z,25.00
2019-02-12T22:15:40.665Z,18.23
2019-02-12T22:18:08.020Z,18.40
2019-02-12T22:20:35.930Z,24.57
2019-02-12T22:23:03.643Z,21.87
2019-02-12T22:25:31.517Z,19.77
2019-02-12T22:28:00.164Z,22.13
2019-02-12T22:30:28.596Z,23.30
2019-02-12T22:32:56.201Z,21.97
2019-02-12T22:35:23.653Z,23.70
2019-02-12T22:37:51.158Z,21.53
2019-02-12T22:40:18.637Z,16.87
2019-02-12T22:42:46.132Z,17.73
2019-02-12T22:45:15.365Z,22.73
2019-02-12T22:47:45.270Z,21.63
2019-02-12T22:50:13.156Z,20.37
2019-02-12T22:52:40.672Z,14.17
2019-02-12T22:55:08.182Z,16.30
2019-02-12T22:57:35.629Z,17.23
2019-02-12T23:00:10.187Z,16.40
2019-02-12T23:02:39.208Z,14.40
2019-02-12T23:05:06.850Z,19.63
2019-02-12T23:07:34.455Z,13.60
2019-02-12T23:10:02.048Z,15.50
2019-02-12T23:12:31.787Z,15.07
2019-02-12T23:14:59.469Z,19.97
2019-02-12T23:17:26.928Z,16.30
2019-02-12T23:19:54.379Z,17.00
2019-02-12T23:22:21.832Z,13.00
2019-02-12T23:24:49.291Z,11.50
2019-02-12T23:27:17.296Z,15.33
2019-02-12T23:29:44.798Z,15.67
2019-02-12T23:32:12.318Z,16.97
2019-02-12T23:34:39.893Z,15.43
2019-02-12T23:37:08.631Z,13.67
2019-02-12T23:39:37.808Z,23.03
2019-02-12T23:42:05.676Z,18.20
2019-02-12T23:44:33.184Z,37.00
2019-02-12T23:47:00.674Z,39.77
2019-02-12T23:49:28.166Z,49.50
2019-02-12T23:51:56.521Z,48.27
2019-02-12T23:54:24.340Z,35.03
2019-02-12T23:56:51.800Z,24.77
2019-02-12T23:59:19.282Z,24.47
